TimeEDT,TemperatureF,Dew PointF,Humidity,Sea Level PressureIn,VisibilityMPH,Wind Direction,Wind SpeedMPH,Gust SpeedMPH,PrecipitationIn,Events,Conditions,WindDirDegrees,DateUTC
12:53 AM,43.0,41.0,93,30.12,2.5,Calm,Calm,-,N/A,,Clear,0,2012-10-08 04:53:00
1:09 AM,42.8,41.0,93,30.11,6.0,Calm,Calm,-,N/A,,Clear,0,2012-10-08 05:09:00
1:24 AM,41.0,39.2,93,30.12,1.5,Calm,Calm,-,N/A,,Partly Cloudy,0,2012-10-08 05:24:00
1:26 AM,39.2,39.2,100,30.12,0.8,Calm,Calm,-,N/A,,Mist,0,2012-10-08 05:26:00
1:35 AM,39.2,39.2,100,30.12,1.2,Calm,Calm,-,N/A,,Clear,0,2012-10-08 05:35:00
1:39 AM,39.2,39.2,100,30.12,3.0,West,3.5,-,N/A,,Clear,270,2012-10-08 05:39:00
1:53 AM,43.0,41.0,93,30.13,10.0,Calm,Calm,-,N/A,,Clear,0,2012-10-08 05:53:00
2:53 AM,41.0,39.9,96,30.12,10.0,Calm,Calm,-,N/A,,Clear,0,2012-10-08 06:53:00
3:53 AM,41.0,39.0,93,30.14,9.0,Calm,Calm,-,N/A,,Clear,0,2012-10-08 07:53:00
4:38 AM,39.2,37.4,93,30.14,2.0,South,3.5,-,N/A,,Clear,180,2012-10-08 08:38:00
4:53 AM,39.0,37.9,96,30.15,8.0,Calm,Calm,-,N/A,,Clear,0,2012-10-08 08:53:00
5:45 AM,37.4,35.6,93,30.14,1.5,Calm,Calm,-,N/A,,Clear,0,2012-10-08 09:45:00
5:53 AM,37.0,36.0,96,30.15,1.0,Calm,Calm,-,N/A,,Mist,0,2012-10-08 09:53:00
6:02 AM,37.4,35.6,93,30.15,0.5,Calm,Calm,-,N/A,Fog,Fog,0,2012-10-08 10:02:00
6:08 AM,37.4,35.6,93,30.16,1.2,Calm,Calm,-,N/A,,Mostly Cloudy,0,2012-10-08 10:08:00
6:11 AM,37.4,35.6,93,30.16,3.0,Calm,Calm,-,N/A,,Mostly Cloudy,0,2012-10-08 10:11:00
6:18 AM,37.4,35.6,93,30.16,4.0,Calm,Calm,-,N/A,,Scattered Clouds,0,2012-10-08 10:18:00
6:26 AM,35.6,35.6,100,30.17,1.8,WSW,3.5,-,N/A,,Partly Cloudy,250,2012-10-08 10:26:00
6:34 AM,35.6,35.6,100,30.18,2.5,Calm,Calm,-,N/A,,Partly Cloudy,0,2012-10-08 10:34:00
6:42 AM,37.4,35.6,93,30.19,6.0,WSW,3.5,-,N/A,,Clear,250,2012-10-08 10:42:00
6:53 AM,37.0,35.1,93,30.20,8.0,SW,3.5,-,N/A,,Clear,230,2012-10-08 10:53:00
7:53 AM,39.0,37.9,96,30.23,8.0,SW,3.5,-,N/A,,Clear,230,2012-10-08 11:53:00
8:53 AM,46.9,42.1,83,30.25,10.0,NW,3.5,-,N/A,,Clear,310,2012-10-08 12:53:00
9:53 AM,50.0,42.1,74,30.27,10.0,Calm,Calm,-,N/A,,Clear,0,2012-10-08 13:53:00
10:51 AM,51.8,39.2,62,30.27,10.0,North,4.6,-,N/A,,Mostly Cloudy,350,2012-10-08 14:51:00
10:53 AM,52.0,39.0,61,30.27,10.0,North,4.6,-,N/A,,Mostly Cloudy,350,2012-10-08 14:53:00
11:33 AM,51.8,39.2,62,30.26,10.0,Calm,Calm,-,N/A,,Scattered Clouds,0,2012-10-08 15:33:00
11:53 AM,52.0,39.9,63,30.26,10.0,East,5.8,-,N/A,,Mostly Cloudy,80,2012-10-08 15:53:00
12:53 PM,52.0,39.0,61,30.26,10.0,Variable,4.6,-,N/A,,Overcast,0,2012-10-08 16:53:00
1:53 PM,53.1,39.0,59,30.27,10.0,Calm,Calm,-,N/A,,Clear,0,2012-10-08 17:53:00
2:53 PM,53.1,39.0,59,30.27,10.0,Calm,Calm,-,N/A,,Scattered Clouds,0,2012-10-08 18:53:00
3:53 PM,53.1,39.0,59,30.24,10.0,Calm,Calm,-,N/A,,Clear,0,2012-10-08 19:53:00
4:53 PM,53.1,39.0,59,30.26,10.0,Calm,Calm,-,N/A,,Scattered Clouds,0,2012-10-08 20:53:00
5:53 PM,52.0,43.0,71,30.29,10.0,Calm,Calm,-,N/A,,Mostly Cloudy,0,2012-10-08 21:53:00
6:53 PM,50.0,43.0,77,30.30,10.0,Calm,Calm,-,N/A,,Overcast,0,2012-10-08 22:53:00
7:53 PM,48.9,44.1,83,30.28,10.0,Calm,Calm,-,N/A,,Overcast,0,2012-10-08 23:53:00
8:53 PM,48.0,44.1,86,30.29,10.0,Calm,Calm,-,N/A,,Mostly Cloudy,0,2012-10-09 00:53:00
10:53 PM,46.9,43.0,86,30.29,10.0,Calm,Calm,-,N/A,,Clear,0,2012-10-09 02:53:00
11:53 PM,46.0,43.0,89,30.26,10.0,Calm,Calm,-,N/A,,Clear,0,2012-10-09 03:53:00